Time;durP1;ratioP1;P1;durP2;ratioP2;P2;SDS_P1;SDS_P2;PMS_P1;PMS_P2;Temp;Humidity;BMP_temperature;BMP_pressure;BME280_temperature;BME280_humidity;BME280_pressure;Samples;Min_cycle;Max_cycle;Signal;HPM_P1;HPM_P2
2023/01/15 00:00:59;;;;;;;19.38;10.85;;;;;;;4.16;65.20;95221.88;5092575;28;20036;-76
2023/01/15 00:03:24;;;;;;;22.70;12.43;;;;;;;4.22;65.09;95222.38;5108110;28;20427;-76
2023/01/15 00:05:50;;;;;;;20.38;11.00;;;;;;;4.13;65.26;95210.00;5090908;28;20152;-76
2023/01/15 00:08:15;;;;;;;16.65;10.25;;;;;;;4.16;65.33;95202.13;5106059;28;20324;-75
2023/01/15 00:10:40;;;;;;;17.67;9.95;;;;;;;4.24;65.36;95212.03;5107045;28;20096;-75
2023/01/15 00:13:06;;;;;;;14.45;8.68;;;;;;;4.23;65.96;95216.34;5091880;28;20027;-76
2023/01/15 00:15:31;;;;;;;16.98;10.40;;;;;;;4.23;66.04;95213.78;5091489;28;20051;-76
2023/01/15 00:17:57;;;;;;;18.13;9.70;;;;;;;4.25;65.49;95211.94;5107482;28;20038;-76
2023/01/15 00:20:22;;;;;;;18.35;9.75;;;;;;;4.17;65.34;95196.06;5105583;28;20024;-76
2023/01/15 00:22:48;;;;;;;16.73;9.93;;;;;;;4.21;65.90;95210.44;5073557;28;20028;-76
2023/01/15 00:27:57;;;;;;;18.70;9.80;;;;;;;4.11;65.97;95200.72;5107263;28;20118;-76
2023/01/15 00:30:23;;;;;;;20.10;10.35;;;;;;;4.03;65.87;95193.38;5070979;28;20499;-76
2023/01/15 00:32:49;;;;;;;22.98;10.80;;;;;;;4.12;65.57;95199.78;5090607;28;20404;-76
2023/01/15 00:35:19;;;;;;;19.23;10.13;;;;;;;4.22;65.62;95219.00;5107329;28;20110;-77
2023/01/15 00:37:45;;;;;;;21.35;10.70;;;;;;;4.25;65.40;95217.06;5089974;28;20455;-77
2023/01/15 00:40:11;;;;;;;20.25;11.27;;;;;;;4.13;65.28;95196.31;5087989;28;20092;-78
2023/01/15 00:42:37;;;;;;;21.85;10.73;;;;;;;4.31;64.93;95210.78;5107571;28;20102;-76
2023/01/15 00:45:08;;;;;;;20.58;10.70;;;;;;;4.33;64.78;95210.72;5089488;28;20056;-77
2023/01/15 00:47:41;;;;;;;21.52;12.30;;;;;;;4.20;64.91;95202.78;5076233;28;20055;-76
2023/01/15 00:50:11;;;;;;;19.90;10.77;;;;;;;4.26;65.29;95207.63;5088276;28;20189;-76
2023/01/15 00:52:36;;;;;;;22.88;11.60;;;;;;;4.28;65.39;95202.41;5090306;28;20032;-76
2023/01/15 00:55:02;;;;;;;23.23;10.52;;;;;;;4.27;65.04;95204.16;5089589;28;20026;-76
2023/01/15 00:57:27;;;;;;;19.60;10.52;;;;;;;4.28;65.08;95207.56;5090125;28;20088;-76
2023/01/15 00:59:53;;;;;;;23.15;12.18;;;;;;;4.27;65.47;95204.16;5071930;27;20020;-76
2023/01/15 01:02:18;;;;;;;20.92;11.38;;;;;;;4.10;65.67;95199.06;5107334;28;20046;-77
2023/01/15 01:04:44;;;;;;;23.52;11.65;;;;;;;4.26;65.68;95207.63;5106800;28;20102;-76
2023/01/15 01:07:09;;;;;;;18.77;11.00;;;;;;;4.32;65.69;95206.47;5073388;28;20031;-76
2023/01/15 01:09:35;;;;;;;20.80;10.77;;;;;;;4.25;65.75;95211.94;5104174;28;20092;-77
2023/01/15 01:12:00;;;;;;;18.48;10.43;;;;;;;4.24;65.89;95209.47;5089570;28;20536;-77
2023/01/15 01:14:26;;;;;;;19.45;10.45;;;;;;;4.26;65.50;95207.63;5072997;28;20036;-76
2023/01/15 01:16:51;;;;;;;19.02;10.35;;;;;;;4.18;65.44;95207.19;5073394;28;20046;-76
2023/01/15 01:19:19;;;;;;;19.65;10.30;;;;;;;4.21;65.43;95207.06;5086482;28;20047;-76
2023/01/15 01:21:44;;;;;;;19.52;10.60;;;;;;;4.14;64.94;95185.13;5123970;27;20078;-76
2023/01/15 01:24:11;;;;;;;19.17;10.45;;;;;;;4.14;65.45;95200.53;5089656;28;20027;-77
2023/01/15 01:26:36;;;;;;;17.17;9.95;;;;;;;4.10;65.43;95204.19;5089925;28;20504;-77
2023/01/15 01:29:02;;;;;;;20.27;10.80;;;;;;;4.07;65.44;95200.03;5103226;28;20047;-77
2023/01/15 01:31:27;;;;;;;18.13;10.18;;;;;;;4.14;65.60;95197.97;5072491;28;20501;-77
2023/01/15 01:33:54;;;;;;;20.38;10.68;;;;;;;4.13;65.28;95175.75;5089101;28;20023;-77
2023/01/15 01:36:20;;;;;;;18.58;10.77;;;;;;;4.15;65.58;95184.19;5089876;28;20424;-77
2023/01/15 01:38:48;;;;;;;18.77;10.32;;;;;;;4.20;66.11;95195.09;5070167;28;20023;-77
2023/01/15 01:41:15;;;;;;;20.55;9.55;;;;;;;4.17;66.03;95185.78;5106084;28;20489;-77
2023/01/15 01:44:28;;;;;;;18.95;10.35;;;;;;;4.11;65.97;95188.69;5088852;28;20028;-75
2023/01/15 01:46:54;;;;;;;16.38;9.25;;;;;;;4.03;66.26;95190.81;5061900;28;20079;-75
2023/01/15 01:49:19;;;;;;;21.55;10.15;;;;;;;4.03;66.04;95186.50;5086563;28;20031;-75
2023/01/15 01:51:50;;;;;;;19.50;9.88;;;;;;;4.04;66.37;95192.50;5089214;28;20040;-75
2023/01/15 01:54:17;;;;;;;18.50;10.23;;;;;;;4.02;66.14;95181.44;5072317;28;20019;-76
2023/01/15 01:56:42;;;;;;;19.70;10.73;;;;;;;4.07;66.36;95194.91;5073434;28;20027;-76
2023/01/15 01:59:07;;;;;;;20.48;10.35;;;;;;;4.03;66.63;95194.19;5103871;28;20034;-76
2023/01/15 02:01:33;;;;;;;19.88;10.43;;;;;;;3.93;66.64;95193.03;5072870;28;20036;-76
2023/01/15 02:03:58;;;;;;;19.05;9.82;;;;;;;3.83;66.25;95178.97;5105899;28;20077;-77
2023/01/15 02:06:24;;;;;;;23.08;10.80;;;;;;;3.97;66.00;95186.81;5106368;28;20043;-76
2023/01/15 02:08:50;;;;;;;19.48;9.93;;;;;;;3.98;66.49;95195.34;5087243;28;20114;-76
2023/01/15 02:11:17;;;;;;;20.95;10.05;;;;;;;3.97;66.78;95202.22;5088978;28;20112;-76
2023/01/15 02:14:10;;;;;;;18.63;10.60;;;;;;;3.97;67.13;95197.09;5088563;28;20061;-76
2023/01/15 02:16:41;;;;;;;19.95;10.23;;;;;;;3.94;67.21;95186.97;5106169;28;20522;-77
2023/01/15 02:19:29;;;;;;;21.40;10.48;;;;;;;3.86;66.93;95178.81;5083741;28;20054;-76
2023/01/15 02:21:57;;;;;;;18.67;9.35;;;;;;;3.86;66.74;95183.97;5105995;28;20038;-76
2023/01/15 02:24:56;;;;;;;19.00;10.77;;;;;;;3.79;66.52;95186.00;5105582;28;20444;-76
2023/01/15 02:27:22;;;;;;;19.10;10.02;;;;;;;3.59;66.77;95173.31;5107739;28;20039;-77
2023/01/15 02:29:51;;;;;;;21.17;10.50;;;;;;;3.71;66.54;95185.56;5070424;28;20520;-75
2023/01/15 02:32:40;;;;;;;19.58;10.05;;;;;;;3.76;66.25;95187.88;5111718;28;20085;-75
2023/01/15 02:35:17;;;;;;;19.55;10.25;;;;;;;3.74;66.59;95194.88;5109525;28;20105;-75
2023/01/15 02:37:45;;;;;;;17.80;9.90;;;;;;;3.77;66.56;95189.56;5109510;28;20046;-75
2023/01/15 02:40:11;;;;;;;16.52;9.68;;;;;;;3.77;66.64;95181.84;5085181;28;20039;-75
2023/01/15 02:42:36;;;;;;;21.38;11.20;;;;;;;3.75;66.82;95186.22;5092916;28;20067;-75
2023/01/15 02:45:02;;;;;;;20.65;10.32;;;;;;;3.73;66.97;95172.63;5092092;28;20027;-75
2023/01/15 02:47:30;;;;;;;19.40;10.57;;;;;;;3.73;67.22;95173.47;5092778;28;20047;-75
2023/01/15 02:49:57;;;;;;;18.92;10.23;;;;;;;3.77;67.08;95179.28;5073310;28;20382;-76
2023/01/15 02:52:28;;;;;;;17.38;9.90;;;;;;;3.73;67.33;95167.47;5076326;28;20104;-76
2023/01/15 02:54:55;;;;;;;;;;;;;;;3.83;67.47;95181.53;5093613;28;20487;-76
2023/01/15 02:57:21;;;;;;;19.73;9.80;;;;;;;3.81;67.36;95176.47;5093167;28;19926;-76
2023/01/15 02:59:47;;;;;;;20.33;10.40;;;;;;;3.84;67.12;95177.22;5106184;28;20032;-76
2023/01/15 03:02:21;;;;;;;18.23;10.38;;;;;;;3.79;66.89;95162.88;5075691;28;20032;-76
2023/01/15 03:04:51;;;;;;;15.95;9.98;;;;;;;3.75;66.84;95168.25;5075137;28;20028;-78
2023/01/15 03:07:25;;;;;;;18.08;10.48;;;;;;;3.61;67.79;95163.78;5110931;28;20027;-78
2023/01/15 03:09:51;;;;;;;16.73;9.93;;;;;;;3.65;67.94;95164.47;5073421;28;20084;-77
2023/01/15 03:12:18;;;;;;;17.88;9.48;;;;;;;3.72;67.46;95170.97;5076874;28;20048;-76
2023/01/15 03:14:50;;;;;;;16.92;9.00;;;;;;;3.70;67.76;95176.19;5108297;28;20073;-76
2023/01/15 03:17:23;;;;;;;16.17;10.15;;;;;;;3.62;67.85;95170.59;5109628;28;20142;-76
2023/01/15 03:19:55;;;;;;;17.05;9.48;;;;;;;3.58;68.13;95176.81;5089853;28;20028;-76
2023/01/15 03:22:32;;;;;;;17.75;9.38;;;;;;;3.57;68.17;95181.13;5109052;28;20039;-76
2023/01/15 03:25:03;;;;;;;19.27;10.18;;;;;;;3.65;68.21;95179.88;5108555;28;20037;-76
2023/01/15 03:27:29;;;;;;;17.58;10.52;;;;;;;3.70;67.88;95170.22;5091983;28;20040;-77
2023/01/15 03:30:04;;;;;;;18.27;10.80;;;;;;;3.63;68.66;95186.84;5105731;28;20469;-77
2023/01/15 03:32:30;;;;;;;18.25;10.73;;;;;;;3.58;68.35;95184.50;5108996;28;20048;-77
2023/01/15 03:34:55;;;;;;;17.83;10.00;;;;;;;3.46;68.59;95167.16;5091664;28;20051;-77
2023/01/15 03:37:22;;;;;;;16.27;9.70;;;;;;;3.37;68.40;95153.00;5109807;28;20043;-76
2023/01/15 03:39:47;;;;;;;15.98;9.43;;;;;;;3.44;68.72;95182.63;5073172;28;20035;-76
2023/01/15 03:42:22;;;;;;;18.02;10.00;;;;;;;3.47;68.92;95187.59;5073630;28;20046;-77
2023/01/15 03:45:00;;;;;;;17.65;9.90;;;;;;;3.48;68.83;95185.84;5109339;28;20030;-77
2023/01/15 03:47:58;;;;;;;17.98;10.10;;;;;;;3.52;68.73;95184.81;5106836;28;20489;-76
2023/01/15 03:50:26;;;;;;;20.17;10.63;;;;;;;3.41;68.34;95175.06;5140075;27;20080;-76
2023/01/15 03:53:13;;;;;;;18.52;10.32;;;;;;;3.46;68.80;95187.69;5107507;28;20489;-76
2023/01/15 03:55:40;;;;;;;23.08;12.05;;;;;;;3.34;69.31;95184.81;5107149;28;20424;-77
2023/01/15 03:58:15;;;;;;;21.95;11.70;;;;;;;3.39;69.09;95184.56;5090473;28;20033;-76
2023/01/15 04:00:42;;;;;;;18.98;10.65;;;;;;;3.45;69.01;95184.25;5089571;28;20058;-77
2023/01/15 04:03:08;;;;;;;18.30;10.65;;;;;;;3.41;68.79;95180.19;5090971;28;20114;-77
2023/01/15 04:05:33;;;;;;;28.17;13.88;;;;;;;3.36;68.95;95180.41;5091050;28;20119;-77
2023/01/15 04:07:59;;;;;;;29.52;15.15;;;;;;;3.34;69.17;95181.38;5090804;28;20477;-77
2023/01/15 04:10:25;;;;;;;19.98;11.45;;;;;;;3.40;68.61;95175.97;5104634;28;20024;-77
2023/01/15 04:12:50;;;;;;;19.38;11.60;;;;;;;3.42;68.98;95173.31;5091223;28;20027;-77
2023/01/15 04:15:16;;;;;;;18.77;10.20;;;;;;;3.35;69.10;95159.97;5107903;28;20382;-76
2023/01/15 04:17:41;;;;;;;16.88;10.10;;;;;;;3.29;68.82;95153.38;5073690;28;20020;-74
2023/01/15 04:20:07;;;;;;;17.60;10.73;;;;;;;3.47;68.63;95172.19;5087038;28;20020;-75
2023/01/15 04:22:34;;;;;;;17.13;10.55;;;;;;;3.40;68.92;95173.41;5108327;28;20127;-75
2023/01/15 04:25:01;;;;;;;19.67;10.45;;;;;;;3.22;69.14;95153.75;5107713;28;20015;-75
2023/01/15 04:27:26;;;;;;;16.52;10.77;;;;;;;3.36;69.12;95170.13;5091444;28;20047;-75
2023/01/15 04:29:52;;;;;;;19.33;10.18;;;;;;;3.56;68.54;95178.59;5086293;28;20047;-75
2023/01/15 04:32:17;;;;;;;16.30;9.82;;;;;;;3.62;68.33;95185.19;5074154;28;20458;-77
2023/01/15 04:34:43;;;;;;;21.80;10.32;;;;;;;3.60;68.43;95187.00;5108074;28;20094;-76
2023/01/15 04:37:08;;;;;;;21.52;10.77;;;;;;;3.58;68.46;95182.75;5107517;28;20035;-75
2023/01/15 04:39:34;;;;;;;18.58;11.02;;;;;;;3.67;67.96;95188.34;5082399;28;20497;-76
2023/01/15 04:44:43;;;;;;;20.25;9.70;;;;;;;3.67;68.10;95193.50;5106913;28;20528;-76
2023/01/15 04:47:08;;;;;;;21.00;11.65;;;;;;;3.56;67.98;95176.84;5106536;28;20066;-76
2023/01/15 04:49:34;;;;;;;19.90;12.15;;;;;;;3.67;68.04;95198.63;5137307;27;20598;-76
2023/01/15 04:52:00;;;;;;;19.42;11.25;;;;;;;3.67;67.88;95201.19;5073893;28;20054;-75
2023/01/15 04:54:25;;;;;;;17.30;10.20;;;;;;;3.62;67.36;95186.00;5109912;27;20020;-77
2023/01/15 04:56:52;;;;;;;14.35;8.55;;;;;;;3.77;67.35;95199.84;5090333;28;20141;-77
2023/01/15 04:59:19;;;;;;;18.95;10.82;;;;;;;3.62;67.17;95160.31;5086027;28;20030;-77
2023/01/15 05:01:44;;;;;;;17.83;10.65;;;;;;;3.70;67.63;95188.19;5089862;28;20408;-77
2023/01/15 05:04:09;;;;;;;17.48;9.85;;;;;;;3.68;67.84;95190.88;5089942;28;20028;-76
2023/01/15 05:06:35;;;;;;;18.38;10.52;;;;;;;3.70;67.56;95196.72;5106910;28;20415;-76
2023/01/15 05:09:01;;;;;;;22.75;13.98;;;;;;;3.67;67.60;95183.22;5100488;28;20024;-76
2023/01/15 05:11:26;;;;;;;19.13;11.20;;;;;;;3.62;68.13;95185.19;5091508;28;20052;-75
2023/01/15 05:13:52;;;;;;;15.88;9.80;;;;;;;3.69;68.51;95191.69;5104534;27;20501;-76
2023/01/15 05:16:26;;;;;;;19.75;10.00;;;;;;;3.69;68.83;95194.25;5106202;28;20034;-77
2023/01/15 05:18:52;;;;;;;18.05;9.40;;;;;;;3.68;68.67;95190.88;5085611;28;20032;-77
2023/01/15 05:21:25;;;;;;;19.17;9.45;;;;;;;3.73;68.69;95185.47;5090021;28;20516;-77
2023/01/15 05:23:52;;;;;;;19.20;11.00;;;;;;;3.72;67.80;95187.22;5089904;28;20032;-77
2023/01/15 05:26:18;;;;;;;17.35;9.93;;;;;;;3.74;67.78;95185.41;5106507;28;20031;-77
2023/01/15 05:28:43;;;;;;;17.88;10.43;;;;;;;3.78;67.36;95184.34;5087250;28;20051;-77
2023/01/15 05:31:17;;;;;;;16.50;9.15;;;;;;;3.75;67.23;95181.91;5104806;28;20116;-77
2023/01/15 05:33:45;;;;;;;16.48;9.38;;;;;;;3.75;67.61;95186.22;5089895;28;20048;-77
2023/01/15 05:36:12;;;;;;;18.40;10.90;;;;;;;3.65;67.27;95160.19;5089752;28;20027;-77
2023/01/15 05:38:37;;;;;;;19.73;10.43;;;;;;;3.77;67.21;95179.28;5101514;28;20028;-77
2023/01/15 05:41:47;;;;;;;21.25;11.10;;;;;;;3.87;67.24;95184.78;5106286;28;20039;-77
2023/01/15 05:43:50;;;;;;;19.02;10.07;;;;;;;3.85;67.26;95190.00;5092226;28;20039;-77
2023/01/15 05:46:15;;;;;;;17.00;9.32;;;;;;;3.85;67.30;95182.31;5088812;28;20031;-76
2023/01/15 05:48:41;;;;;;;16.65;9.60;;;;;;;3.90;66.84;95189.75;5102229;28;20477;-77
2023/01/15 05:51:06;;;;;;;17.33;9.63;;;;;;;3.86;66.63;95178.00;5088824;28;20505;-77
2023/01/15 05:53:33;;;;;;;17.52;9.50;;;;;;;3.87;66.53;95185.59;5089213;28;20036;-77
2023/01/15 05:56:03;;;;;;;14.07;8.45;;;;;;;3.79;66.84;95168.03;5105887;28;20027;-77
2023/01/15 05:58:28;;;;;;;16.05;9.15;;;;;;;3.91;67.65;95194.84;5066819;28;20043;-76
2023/01/15 06:00:54;;;;;;;15.23;8.88;;;;;;;3.88;67.87;95191.59;5106455;28;20035;-76
2023/01/15 06:03:23;;;;;;;16.58;9.23;;;;;;;3.80;68.04;95200.50;5090169;28;20035;-76
2023/01/15 06:05:52;;;;;;;16.48;9.48;;;;;;;3.81;67.63;95201.34;5108886;28;20047;-76
2023/01/15 06:08:18;;;;;;;14.50;8.82;;;;;;;3.66;67.71;95191.84;5074509;28;20111;-76
2023/01/15 06:10:44;;;;;;;17.58;9.73;;;;;;;3.60;68.06;95203.25;5091346;28;20146;-77
2023/01/15 06:13:09;;;;;;;22.15;11.05;;;;;;;3.58;68.43;95197.34;5092527;28;20118;-76
2023/01/15 06:15:35;;;;;;;23.15;11.80;;;;;;;3.51;68.70;95193.41;5075925;28;20505;-76
2023/01/15 06:18:01;;;;;;;24.27;14.82;;;;;;;3.53;68.56;95199.31;5092943;28;20039;-76
2023/01/15 06:20:26;;;;;;;28.65;15.15;;;;;;;3.48;68.52;95196.97;5088913;28;20041;-76
2023/01/15 06:22:51;;;;;;;23.73;13.77;;;;;;;3.49;68.22;95195.25;5109993;28;20035;-76
2023/01/15 06:25:17;;;;;;;23.67;12.77;;;;;;;3.64;68.48;95198.78;5092875;28;20344;-76
2023/01/15 06:27:43;;;;;;;23.90;13.20;;;;;;;3.73;68.70;95199.19;5092587;28;20422;-76
2023/01/15 06:30:10;;;;;;;32.03;15.05;;;;;;;3.62;69.05;95183.44;5105794;28;20071;-76
2023/01/15 06:32:36;;;;;;;56.20;21.00;;;;;;;3.65;69.38;95192.72;5092838;28;20425;-76
2023/01/15 06:35:01;;;;;;;44.17;19.20;;;;;;;3.60;69.37;95181.88;5092630;28;20036;-76
2023/01/15 06:37:26;;;;;;;49.03;21.15;;;;;;;3.70;69.12;95198.47;5092785;28;20035;-76
2023/01/15 06:39:52;;;;;;;57.95;22.83;;;;;;;3.83;68.60;95193.56;5107926;27;20080;-76
2023/01/15 06:47:46;;;;;;;57.13;25.30;;;;;;;3.89;68.95;95203.53;5095189;28;20471;-76
2023/01/15 06:50:12;;;;;;;52.08;23.50;;;;;;;3.73;69.01;95183.75;5086995;28;20051;-75
2023/01/15 06:52:38;;;;;;;52.40;24.38;;;;;;;3.89;68.82;95196.66;5092840;28;20104;-75
2023/01/15 06:55:03;;;;;;;52.05;25.70;;;;;;;3.97;68.69;95191.94;5075668;28;20188;-75
2023/01/15 06:57:29;;;;;;;74.90;39.95;;;;;;;4.13;68.28;95198.91;5108698;28;20015;-75
2023/01/15 06:59:54;;;;;;;51.08;30.52;;;;;;;4.08;67.25;95177.72;5088347;28;20104;-75
2023/01/15 07:02:20;;;;;;;47.45;27.92;;;;;;;4.15;67.21;95190.19;5091681;28;20063;-74
2023/01/15 07:04:46;;;;;;;49.33;30.70;;;;;;;4.19;66.70;95185.72;5075878;28;20039;-75
2023/01/15 07:07:13;;;;;;;61.35;35.35;;;;;;;4.28;66.61;95195.50;5092148;28;20031;-74
2023/01/15 07:09:39;;;;;;;48.92;29.15;;;;;;;4.18;67.11;95189.19;5088659;28;20028;-74
2023/01/15 07:12:04;;;;;;;46.47;28.73;;;;;;;4.27;67.00;95183.56;5110420;28;20038;-73
2023/01/15 07:14:31;;;;;;;37.35;23.92;;;;;;;4.44;66.19;95191.22;5071371;28;20039;-74
2023/01/15 07:16:58;;;;;;;38.67;23.52;;;;;;;4.43;66.33;95174.16;5105763;28;20028;-75
2023/01/15 07:19:23;;;;;;;35.95;22.85;;;;;;;4.50;66.16;95194.41;5087980;28;20027;-74
2023/01/15 07:21:49;;;;;;;35.00;21.20;;;;;;;4.60;65.78;95186.13;5108133;28;20024;-75
2023/01/15 07:24:14;;;;;;;30.90;19.33;;;;;;;4.70;65.32;95189.84;5109428;28;20600;-74
2023/01/15 07:26:41;;;;;;;31.48;19.55;;;;;;;4.61;65.42;95171.50;5091265;28;20077;-74
2023/01/15 07:29:06;;;;;;;25.17;15.38;;;;;;;4.62;65.61;95162.84;5087918;28;20059;-74
2023/01/15 07:31:32;;;;;;;26.98;15.70;;;;;;;4.88;64.40;95185.47;5108977;28;20039;-74
2023/01/15 07:33:57;;;;;;;25.80;13.73;;;;;;;4.91;64.17;95174.97;5110398;28;20031;-75
2023/01/15 07:36:23;;;;;;;22.40;13.52;;;;;;;5.02;63.41;95199.31;5108956;28;20039;-75
2023/01/15 07:38:49;;;;;;;24.98;14.73;;;;;;;5.05;63.54;95199.16;5085019;27;20028;-75
2023/01/15 07:49:45;;;;;;;32.03;16.73;;;;;;;5.02;62.37;95171.81;5104018;28;20046;-72
2023/01/15 07:52:12;;;;;;;23.40;13.43;;;;;;;5.13;62.21;95194.41;5091829;28;20419;-74
2023/01/15 07:54:37;;;;;;;23.35;12.45;;;;;;;5.25;61.69;95203.19;5092114;28;20393;-74
2023/01/15 07:57:03;;;;;;;33.05;14.68;;;;;;;5.14;61.89;95190.91;5110244;28;20068;-72
2023/01/15 07:59:28;;;;;;;37.03;19.20;;;;;;;5.19;62.09;95200.97;5093872;28;20424;-72
2023/01/15 08:01:54;;;;;;;27.02;14.85;;;;;;;5.02;61.63;95207.88;5094031;28;20036;-70
2023/01/15 08:04:19;;;;;;;21.08;11.25;;;;;;;5.15;61.28;95202.84;5111491;28;20023;-72
2023/01/15 08:06:45;;;;;;;16.25;9.82;;;;;;;5.04;60.91;95182.03;5089930;28;20028;-70
2023/01/15 08:09:10;;;;;;;13.48;8.30;;;;;;;5.04;60.47;95192.31;5078882;28;20036;-70
2023/01/15 08:17:03;;;;;;;16.40;9.00;;;;;;;5.00;61.49;95199.41;5109575;28;20027;-72
2023/01/15 08:19:29;;;;;;;15.90;8.68;;;;;;;5.10;60.81;95199.72;5109626;27;20028;-73
2023/01/15 08:21:55;;;;;;;15.05;8.80;;;;;;;5.03;61.31;95193.25;5106345;27;20027;-73
2023/01/15 08:24:22;;;;;;;14.95;9.38;;;;;;;5.19;61.31;95209.53;5075971;28;20037;-74
2023/01/15 08:26:47;;;;;;;19.00;10.57;;;;;;;5.33;60.31;95214.72;5104749;28;20078;-73
2023/01/15 08:29:13;;;;;;;16.55;9.35;;;;;;;5.10;61.08;95210.03;5092017;28;20043;-71
2023/01/15 08:31:40;;;;;;;19.88;10.63;;;;;;;5.15;61.48;95208.00;5090185;28;20402;-72
2023/01/15 08:34:06;;;;;;;21.20;13.20;;;;;;;5.26;60.91;95205.66;5110545;28;20028;-73
2023/01/15 08:36:31;;;;;;;17.35;10.20;;;;;;;5.18;60.96;95207.84;5090446;28;20118;-73
2023/01/15 08:38:57;;;;;;;15.98;9.88;;;;;;;5.14;61.08;95196.06;5112804;27;20424;-73
2023/01/15 08:41:22;;;;;;;20.02;11.18;;;;;;;5.29;60.30;95210.69;5113739;27;20057;-73
2023/01/15 08:43:47;;;;;;;18.25;9.52;;;;;;;5.32;59.71;95197.63;5091980;28;20032;-72
2023/01/15 08:46:13;;;;;;;15.65;9.27;;;;;;;5.51;59.40;95206.88;5117502;27;20024;-71
2023/01/15 08:48:38;;;;;;;17.10;10.20;;;;;;;5.47;59.87;95198.50;5111857;27;20027;-73
2023/01/15 08:51:05;;;;;;;16.40;10.75;;;;;;;5.56;59.73;95205.69;5110825;28;20273;-71
2023/01/15 08:53:30;;;;;;;17.92;11.05;;;;;;;5.66;59.27;95197.47;5105993;28;20463;-71
2023/01/15 08:55:56;;;;;;;17.27;11.38;;;;;;;5.65;59.42;95198.34;5109667;28;20076;-71
2023/01/15 08:58:21;;;;;;;19.85;12.45;;;;;;;5.72;59.33;95199.69;5110123;27;20421;-72
2023/01/15 09:00:47;;;;;;;20.52;12.93;;;;;;;5.72;59.21;95195.34;5092138;27;20440;-72
2023/01/15 09:03:13;;;;;;;22.48;14.35;;;;;;;5.71;59.94;95192.84;5111126;28;20055;-72
2023/01/15 09:05:39;;;;;;;18.73;11.30;;;;;;;5.81;59.25;95197.38;5110486;28;20020;-72
2023/01/15 09:08:05;;;;;;;17.60;11.40;;;;;;;5.82;59.15;95206.81;5110224;28;20504;-72
2023/01/15 09:10:31;;;;;;;18.73;11.38;;;;;;;5.78;59.36;95195.00;5127565;27;20026;-72
2023/01/15 09:13:00;;;;;;;17.38;10.43;;;;;;;5.83;59.10;95200.72;5093635;28;20458;-72
2023/01/15 09:15:27;;;;;;;17.13;10.05;;;;;;;5.67;58.71;95163.03;5110404;28;20148;-72
2023/01/15 09:17:52;;;;;;;16.15;9.25;;;;;;;5.90;57.97;95185.72;5107703;28;20039;-71
2023/01/15 09:20:18;;;;;;;18.15;10.73;;;;;;;5.83;58.46;95180.09;5091396;28;20307;-72
2023/01/15 09:22:43;;;;;;;17.27;9.95;;;;;;;5.94;58.56;95192.38;5091094;28;20046;-72
2023/01/15 09:25:09;;;;;;;16.88;9.98;;;;;;;5.58;58.79;95188.41;5074353;28;20459;-72
2023/01/15 09:27:34;;;;;;;20.75;11.45;;;;;;;5.33;60.02;95194.13;5108222;28;20031;-72
2023/01/15 09:30:00;;;;;;;21.60;11.35;;;;;;;5.46;60.41;95190.84;5074638;28;20060;-72
2023/01/15 09:32:25;;;;;;;19.60;10.68;;;;;;;5.59;59.47;95189.22;5093299;28;20118;-72
2023/01/15 09:34:51;;;;;;;19.13;11.40;;;;;;;5.63;59.60;95188.16;5110178;28;20038;-72
2023/01/15 09:37:16;;;;;;;17.55;10.68;;;;;;;5.59;59.38;95164.28;5093335;28;20039;-73
2023/01/15 09:39:42;;;;;;;15.75;10.52;;;;;;;5.81;59.57;95189.66;5109309;28;20027;-72
2023/01/15 09:42:27;;;;;;;25.50;14.60;;;;;;;5.79;59.53;95165.72;5076310;28;20038;-72
2023/01/15 09:45:19;;;;;;;21.98;12.90;;;;;;;5.98;58.98;95169.81;5111967;28;20028;-72
2023/01/15 09:48:06;;;;;;;23.73;13.65;;;;;;;6.01;59.24;95159.31;5110029;28;20072;-72
2023/01/15 09:50:46;;;;;;;23.33;12.48;;;;;;;6.02;58.31;95158.41;5111329;28;20035;-72
2023/01/15 09:53:36;;;;;;;23.98;13.60;;;;;;;6.01;58.30;95152.41;5110075;28;20028;-72
2023/01/15 09:56:02;;;;;;;20.05;11.43;;;;;;;5.95;58.74;95144.22;5110229;28;20110;-72
2023/01/15 09:58:38;;;;;;;18.45;11.38;;;;;;;5.94;58.93;95148.56;5109880;28;20510;-72
2023/01/15 10:01:03;;;;;;;19.30;11.27;;;;;;;5.86;58.89;95124.94;5109777;28;20058;-72
2023/01/15 10:03:38;;;;;;;21.13;11.90;;;;;;;6.00;59.17;95130.13;5111139;28;20071;-72
2023/01/15 10:06:05;;;;;;;17.85;10.82;;;;;;;6.01;58.32;95136.94;5144426;27;20031;-72
2023/01/15 10:08:35;;;;;;;16.55;10.07;;;;;;;5.76;58.89;95119.47;5111128;28;20027;-71
2023/01/15 10:11:11;;;;;;;18.98;12.18;;;;;;;5.90;58.97;95121.25;5109907;28;20042;-72
2023/01/15 10:13:49;;;;;;;24.02;13.95;;;;;;;5.95;59.40;95110.69;5144237;27;20031;-72
2023/01/15 10:16:30;;;;;;;32.00;15.38;;;;;;;6.03;58.13;95099.00;5111240;28;20036;-72
2023/01/15 10:18:57;;;;;;;39.05;14.75;;;;;;;6.10;58.65;95106.34;5128340;27;20177;-72
2023/01/15 10:21:22;;;;;;;95.90;25.45;;;;;;;6.21;58.22;95096.22;5111305;28;20039;-72
2023/01/15 10:23:55;;;;;;;81.80;24.73;;;;;;;6.24;57.63;95102.03;5110893;28;20028;-72
2023/01/15 10:26:33;;;;;;;15.45;9.55;;;;;;;5.79;58.48;95093.53;5109817;28;20035;-72
2023/01/15 10:29:25;;;;;;;15.48;9.13;;;;;;;5.74;59.10;95087.81;5110674;28;20087;-71
2023/01/15 10:31:51;;;;;;;75.78;31.60;;;;;;;5.88;58.79;95074.13;5092745;28;20028;-72
2023/01/15 10:34:37;;;;;;;33.05;17.98;;;;;;;6.21;58.60;95084.16;5092594;28;20200;-72
2023/01/15 10:37:08;;;;;;;20.70;11.32;;;;;;;6.20;58.66;95077.31;5109654;28;20059;-72
2023/01/15 10:39:48;;;;;;;15.65;9.23;;;;;;;6.34;57.69;95070.50;5109550;28;20035;-71
2023/01/15 10:42:49;;;;;;;13.02;8.15;;;;;;;6.49;57.30;95067.78;5128252;27;20031;-71
2023/01/15 10:45:20;;;;;;;16.95;10.00;;;;;;;6.54;57.77;95062.31;5066885;28;20063;-72
2023/01/15 10:47:50;;;;;;;17.52;9.48;;;;;;;6.56;57.79;95060.47;5109370;28;20073;-71
2023/01/15 10:50:20;;;;;;;14.90;9.00;;;;;;;6.68;56.88;95051.13;5109370;28;20503;-72
2023/01/15 10:53:09;;;;;;;15.60;10.05;;;;;;;6.69;56.86;95051.03;5113201;28;20024;-71
2023/01/15 10:55:40;;;;;;;13.75;8.70;;;;;;;6.77;56.40;95039.38;5110428;28;20082;-71
2023/01/15 10:58:12;;;;;;;14.63;9.32;;;;;;;6.82;56.71;95034.75;5094295;28;20552;-72
2023/01/15 11:00:38;;;;;;;13.23;8.65;;;;;;;6.86;56.42;95036.22;5111182;28;20038;-72
2023/01/15 11:03:17;;;;;;;13.27;8.63;;;;;;;6.76;56.36;95025.66;5076875;28;20440;-72
2023/01/15 11:05:45;;;;;;;17.77;8.90;;;;;;;6.81;56.23;95020.19;5094366;28;20023;-72
2023/01/15 11:08:18;;;;;;;13.55;8.77;;;;;;;6.96;56.19;95026.94;5078751;28;20042;-72
2023/01/15 11:10:44;;;;;;;17.17;10.10;;;;;;;6.92;56.25;95015.16;5096673;28;20405;-72
2023/01/15 11:19:48;;;;;;;12.15;7.68;;;;;;;6.62;55.67;95007.63;5099190;28;20038;-72
2023/01/15 11:21:49;;;;;;;13.70;7.70;;;;;;;6.70;56.52;95008.78;5084839;28;20054;-71
2023/01/15 11:24:15;;;;;;;11.00;6.78;;;;;;;6.70;55.75;94995.88;5095672;28;20421;-72
2023/01/15 11:26:41;;;;;;;11.10;6.85;;;;;;;6.57;56.07;95005.34;5095772;28;20123;-72
2023/01/15 11:29:14;;;;;;;11.68;7.03;;;;;;;6.38;56.91;94986.78;5095280;28;20505;-71
2023/01/15 11:31:40;;;;;;;8.68;6.25;;;;;;;6.42;57.27;94990.84;5078777;28;20039;-71
2023/01/15 11:34:15;;;;;;;8.23;6.07;;;;;;;6.45;57.45;94985.50;5078463;28;20035;-71
2023/01/15 11:36:41;;;;;;;9.98;6.60;;;;;;;6.37;57.51;94982.56;5096805;28;20028;-71
2023/01/15 11:39:27;;;;;;;10.18;6.57;;;;;;;6.47;57.59;94989.63;5112350;28;20456;-72
2023/01/15 11:50:55;;;;;;;9.80;6.60;;;;;;;6.59;57.37;94972.53;5098290;28;20183;-71
2023/01/15 11:53:25;;;;;;;9.00;6.60;;;;;;;6.60;57.69;94963.88;5097366;28;20034;-72
2023/01/15 11:55:59;;;;;;;11.83;7.03;;;;;;;6.55;57.67;94968.50;5094975;28;20088;-72
2023/01/15 11:58:30;;;;;;;9.65;6.35;;;;;;;6.52;57.41;94954.94;5078134;28;20360;-71
2023/01/15 12:00:57;;;;;;;10.30;6.78;;;;;;;6.45;57.64;94955.34;5095337;28;20489;-72
2023/01/15 12:03:24;;;;;;;12.15;7.22;;;;;;;6.46;58.08;94958.75;5111124;28;20537;-72
2023/01/15 12:05:56;;;;;;;12.48;7.85;;;;;;;6.45;58.56;94957.09;5111842;28;20031;-71
2023/01/15 12:08:51;;;;;;;11.23;7.40;;;;;;;6.61;58.59;94954.38;5078046;28;20024;-72
2023/01/15 12:11:32;;;;;;;12.75;7.55;;;;;;;6.80;58.39;94951.38;5096105;28;20493;-72
2023/01/15 12:14:00;;;;;;;11.30;7.32;;;;;;;6.86;57.92;94944.09;5111695;28;20185;-71
2023/01/15 12:16:41;;;;;;;11.13;6.60;;;;;;;6.99;57.36;94948.41;5111569;28;20046;-71